Time;durP1;ratioP1;P1;durP2;ratioP2;P2;SDS_P1;SDS_P2;PMS_P1;PMS_P2;Temp;Humidity;BMP_temperature;BMP_pressure;BME280_temperature;BME280_humidity;BME280_pressure;Samples;Min_cycle;Max_cycle;Signal;HPM_P1;HPM_P2
2022/07/12 00:01:08;;;;;;;6.70;2.88;;;16.50;99.90;;;;;;5001380;28;20066;-77
2022/07/12 00:03:34;;;;;;;5.97;2.80;;;16.50;99.90;;;;;;5002594;28;20033;-77
2022/07/12 00:06:01;;;;;;;4.03;2.40;;;16.50;99.90;;;;;;4999723;28;21055;-77
2022/07/12 00:08:27;;;;;;;4.70;3.03;;;16.50;99.90;;;;;;5000388;28;20034;-77
2022/07/12 00:10:53;;;;;;;4.20;2.60;;;16.50;99.90;;;;;;5003752;28;20031;-79
2022/07/12 00:13:19;;;;;;;3.38;2.97;;;16.50;99.90;;;;;;5002374;28;20076;-77
2022/07/12 00:15:45;;;;;;;3.58;2.90;;;16.40;99.90;;;;;;4985241;28;20026;-76
2022/07/12 00:18:11;;;;;;;4.25;2.60;;;16.50;99.90;;;;;;5000793;28;20030;-79
2022/07/12 00:20:37;;;;;;;4.30;3.00;;;16.50;99.90;;;;;;5022953;28;20034;-79
2022/07/12 00:23:03;;;;;;;4.63;2.75;;;16.40;99.90;;;;;;5026376;28;20094;-79
2022/07/12 00:25:29;;;;;;;3.50;2.60;;;16.40;99.90;;;;;;5026377;28;20029;-79
2022/07/12 00:27:55;;;;;;;3.30;3.00;;;16.40;99.90;;;;;;5009755;28;20062;-77
2022/07/12 00:30:21;;;;;;;4.20;2.90;;;16.40;99.90;;;;;;4986032;28;20050;-76
2022/07/12 00:32:48;;;;;;;3.30;2.60;;;16.30;99.90;;;;;;5001620;28;20032;-77
2022/07/12 00:35:14;;;;;;;3.50;2.70;;;16.30;99.90;;;;;;5002988;28;20512;-77
2022/07/12 00:37:40;;;;;;;3.92;2.80;;;16.30;99.90;;;;;;4999583;28;20411;-77
2022/07/12 00:40:10;;;;;;;5.05;2.80;;;16.30;99.90;;;;;;5003580;28;20022;-77
2022/07/12 00:42:38;;;;;;;8.82;2.70;;;16.20;99.90;;;;;;5003174;28;20030;-77
2022/07/12 00:45:06;;;;;;;4.75;2.83;;;16.20;99.90;;;;;;5001799;28;20026;-75
2022/07/12 00:47:36;;;;;;;3.42;2.83;;;16.20;99.90;;;;;;4983768;28;20416;-76
2022/07/12 00:50:10;;;;;;;4.30;2.33;;;16.20;99.90;;;;;;5004196;28;20033;-77
2022/07/12 00:52:36;;;;;;;4.78;2.95;;;16.20;99.90;;;;;;5002745;28;20284;-77
2022/07/12 00:55:06;;;;;;;4.13;2.58;;;16.20;99.90;;;;;;5002544;28;20022;-76
2022/07/12 00:57:33;;;;;;;6.03;2.70;;;16.20;99.90;;;;;;5000655;28;20030;-76
2022/07/12 00:59:59;;;;;;;3.88;2.80;;;16.10;99.90;;;;;;5002116;28;20486;-76
2022/07/12 01:02:25;;;;;;;5.63;2.78;;;16.10;99.90;;;;;;5002705;28;20064;-77
2022/07/12 01:04:52;;;;;;;4.22;2.80;;;16.10;99.90;;;;;;5003667;28;20033;-77
2022/07/12 01:07:18;;;;;;;5.57;2.42;;;16.10;99.90;;;;;;5001058;28;20036;-77
2022/07/12 01:09:44;;;;;;;5.55;3.17;;;16.10;99.90;;;;;;5004173;28;20022;-77
2022/07/12 01:12:11;;;;;;;4.50;2.58;;;16.10;99.90;;;;;;5003480;28;20026;-77
2022/07/12 01:14:39;;;;;;;3.95;2.78;;;16.00;99.90;;;;;;4985155;28;20039;-77
2022/07/12 01:17:06;;;;;;;3.42;2.80;;;16.00;99.90;;;;;;5001813;28;20026;-76
2022/07/12 01:19:33;;;;;;;6.05;3.20;;;16.00;99.90;;;;;;4985735;28;20448;-79
2022/07/12 01:22:02;;;;;;;4.88;3.22;;;16.00;99.90;;;;;;5001006;28;20497;-76
2022/07/12 01:24:28;;;;;;;3.95;2.85;;;16.00;99.90;;;;;;5003449;28;20037;-79
2022/07/12 01:26:54;;;;;;;3.92;2.78;;;15.90;99.90;;;;;;5016259;28;20433;-77
2022/07/12 01:29:20;;;;;;;7.15;2.70;;;15.90;99.90;;;;;;5001353;28;20410;-78
2022/07/12 01:31:46;;;;;;;9.27;3.33;;;15.90;99.90;;;;;;4998822;28;20037;-77
2022/07/12 01:34:13;;;;;;;4.72;3.05;;;15.90;99.90;;;;;;5003143;28;20379;-78
2022/07/12 01:36:40;;;;;;;4.72;2.90;;;15.90;99.90;;;;;;4997906;28;20098;-76
2022/07/12 01:39:06;;;;;;;7.57;3.13;;;15.80;99.90;;;;;;4997330;28;20049;-76
2022/07/12 01:41:32;;;;;;;4.35;3.00;;;15.80;99.90;;;;;;4997267;28;20509;-77
2022/07/12 01:43:59;;;;;;;5.25;2.70;;;15.80;99.90;;;;;;5001035;28;20033;-76
2022/07/12 01:46:25;;;;;;;5.28;3.10;;;15.80;99.90;;;;;;4999800;28;20032;-76
2022/07/12 01:48:50;;;;;;;3.75;2.85;;;15.70;99.90;;;;;;5002563;28;20042;-75
2022/07/12 01:51:16;;;;;;;4.88;2.88;;;15.70;99.90;;;;;;4997876;28;20026;-77
2022/07/12 01:53:42;;;;;;;5.47;3.00;;;15.70;99.90;;;;;;5001224;28;20489;-76
2022/07/12 01:56:09;;;;;;;5.20;2.80;;;15.70;99.90;;;;;;4997665;28;20588;-77
2022/07/12 01:58:35;;;;;;;3.28;2.63;;;15.60;99.90;;;;;;4999993;28;20092;-77
2022/07/12 02:01:00;;;;;;;3.67;2.60;;;15.60;99.90;;;;;;5002119;28;20026;-77
2022/07/12 02:03:26;;;;;;;3.83;2.70;;;15.60;99.90;;;;;;5003389;28;20457;-76
2022/07/12 02:05:52;;;;;;;4.18;2.85;;;15.60;99.90;;;;;;5000088;28;20040;-77
2022/07/12 02:08:18;;;;;;;3.63;2.28;;;15.60;99.90;;;;;;4996307;28;20029;-79
2022/07/12 02:10:44;;;;;;;3.20;2.20;;;15.50;99.90;;;;;;4986247;28;20022;-77
2022/07/12 02:13:10;;;;;;;3.63;2.88;;;15.50;99.90;;;;;;4999398;28;20109;-77
2022/07/12 02:15:36;;;;;;;4.68;2.80;;;15.50;99.90;;;;;;4999844;28;20553;-77
2022/07/12 02:18:02;;;;;;;4.95;3.08;;;15.50;99.90;;;;;;5001133;28;20034;-77
2022/07/12 02:20:28;;;;;;;4.05;2.53;;;15.50;99.90;;;;;;4997371;28;20061;-76
2022/07/12 02:22:53;;;;;;;5.60;3.35;;;15.50;99.90;;;;;;4998649;28;20030;-76
2022/07/12 02:25:19;;;;;;;4.40;2.90;;;15.50;99.90;;;;;;4999992;28;20497;-77
2022/07/12 02:27:45;;;;;;;4.75;3.42;;;15.50;99.90;;;;;;5007533;28;20380;-77
2022/07/12 02:30:11;;;;;;;4.80;3.08;;;15.40;99.90;;;;;;5019044;28;20459;-77
2022/07/12 02:32:38;;;;;;;3.67;2.95;;;15.50;99.90;;;;;;5002655;28;20030;-77
2022/07/12 02:35:05;;;;;;;7.70;3.10;;;15.40;99.90;;;;;;5001490;28;20371;-77
2022/07/12 02:37:31;;;;;;;4.40;3.00;;;15.40;99.90;;;;;;5005853;28;20098;-78
2022/07/12 02:40:52;;;;;;;4.03;2.92;;;15.40;99.90;;;;;;5002904;28;20026;-79
2022/07/12 02:42:43;;;;;;;5.65;2.97;;;15.40;99.90;;;;;;5004987;28;20101;-77
2022/07/12 02:45:10;;;;;;;3.17;2.83;;;15.40;99.90;;;;;;5003708;28;20045;-77
2022/07/12 02:47:39;;;;;;;4.50;3.28;;;15.40;99.90;;;;;;5005326;28;20027;-76
2022/07/12 02:50:06;;;;;;;4.90;2.80;;;15.30;99.90;;;;;;4999700;28;20029;-76
2022/07/12 02:52:32;;;;;;;3.88;3.28;;;15.30;99.90;;;;;;5001191;28;20026;-77
2022/07/12 02:54:58;;;;;;;4.47;3.20;;;15.30;99.90;;;;;;5003528;28;20023;-77
2022/07/12 02:57:24;;;;;;;7.10;3.67;;;15.30;99.90;;;;;;4984331;28;20041;-77
2022/07/12 02:59:50;;;;;;;3.80;3.10;;;15.30;99.90;;;;;;5001743;28;20461;-78
2022/07/12 03:02:16;;;;;;;5.35;3.50;;;15.30;99.90;;;;;;5005921;28;20017;-77
2022/07/12 03:04:42;;;;;;;6.22;3.88;;;15.30;99.90;;;;;;5001612;28;20014;-77
2022/07/12 03:07:07;;;;;;;4.93;3.15;;;15.30;99.90;;;;;;5002358;28;20077;-76
2022/07/12 03:09:33;;;;;;;5.45;3.60;;;15.20;99.90;;;;;;5001184;28;20120;-76
2022/07/12 03:11:59;;;;;;;8.18;3.55;;;15.20;99.90;;;;;;5002483;28;20034;-76
2022/07/12 03:14:24;;;;;;;5.25;3.03;;;15.20;99.90;;;;;;5004464;28;20026;-77
2022/07/12 03:16:50;;;;;;;6.68;3.60;;;15.20;99.90;;;;;;5003835;28;20466;-76
2022/07/12 03:19:16;;;;;;;5.57;3.42;;;15.20;99.90;;;;;;5003428;28;20018;-76
2022/07/12 03:21:42;;;;;;;4.15;3.28;;;15.30;99.90;;;;;;5003805;28;20581;-76
2022/07/12 03:24:08;;;;;;;4.85;3.60;;;15.30;99.90;;;;;;5002924;28;20031;-77
2022/07/12 03:26:33;;;;;;;4.93;3.42;;;15.30;99.90;;;;;;5000849;28;20634;-77
2022/07/12 03:29:02;;;;;;;5.15;3.83;;;15.30;99.90;;;;;;4999703;28;20029;-76
2022/07/12 03:31:28;;;;;;;5.03;3.83;;;15.30;99.90;;;;;;5002355;28;20018;-76
2022/07/12 03:33:54;;;;;;;8.13;3.85;;;15.30;99.90;;;;;;5000337;28;20032;-76
2022/07/12 03:36:20;;;;;;;6.18;3.97;;;15.30;99.90;;;;;;5003026;28;20043;-77
2022/07/12 03:38:46;;;;;;;5.60;3.50;;;15.30;99.90;;;;;;5001389;28;20096;-77
2022/07/12 03:41:12;;;;;;;6.68;4.63;;;15.30;99.90;;;;;;5002967;28;20421;-78
2022/07/12 03:43:37;;;;;;;6.47;4.15;;;15.30;99.90;;;;;;5001294;28;20030;-77
2022/07/12 03:46:03;;;;;;;5.47;3.72;;;15.30;99.90;;;;;;4998937;28;20435;-77
2022/07/12 03:48:29;;;;;;;6.97;4.03;;;15.30;99.90;;;;;;5004268;28;20025;-77
2022/07/12 03:50:55;;;;;;;5.80;3.97;;;15.40;99.90;;;;;;5004231;28;20030;-77
2022/07/12 03:53:21;;;;;;;6.85;4.45;;;15.40;99.90;;;;;;5003648;28;20018;-77
2022/07/12 03:55:47;;;;;;;7.18;4.10;;;15.40;99.90;;;;;;4999906;28;20929;-77
2022/07/12 03:58:13;;;;;;;5.90;4.10;;;15.40;99.90;;;;;;5000661;28;20501;-77
2022/07/12 04:00:42;;;;;;;5.30;4.13;;;15.40;99.90;;;;;;4999733;28;20030;-77
2022/07/12 04:03:10;;;;;;;6.30;4.40;;;15.40;99.90;;;;;;5000875;28;20022;-77
2022/07/12 04:05:36;;;;;;;7.93;4.45;;;15.40;99.90;;;;;;5001794;28;20541;-77
2022/07/12 04:08:02;;;;;;;6.07;4.53;;;15.40;99.90;;;;;;5000513;28;20038;-77
2022/07/12 04:10:28;;;;;;;5.90;5.10;;;15.40;99.90;;;;;;5000952;28;20146;-77
2022/07/12 04:12:54;;;;;;;7.18;4.93;;;15.40;99.90;;;;;;5000824;28;20026;-77
2022/07/12 04:15:20;;;;;;;6.57;4.78;;;15.50;99.90;;;;;;5001873;28;20085;-78
2022/07/12 04:17:46;;;;;;;5.80;4.97;;;15.50;99.90;;;;;;4998623;28;20026;-76
2022/07/12 04:20:12;;;;;;;9.18;5.35;;;15.50;99.90;;;;;;5000348;28;20486;-77
2022/07/12 04:22:38;;;;;;;8.32;5.28;;;15.50;99.90;;;;;;5002814;28;20040;-77
2022/07/12 04:25:08;;;;;;;6.95;4.80;;;15.50;99.90;;;;;;5000750;28;20041;-77
2022/07/12 04:27:34;;;;;;;5.72;4.32;;;15.60;99.90;;;;;;5001449;28;20030;-77
2022/07/12 04:29:59;;;;;;;5.75;4.30;;;15.70;99.90;;;;;;5001206;28;20026;-77
2022/07/12 04:32:25;;;;;;;9.43;5.20;;;15.70;99.90;;;;;;5000512;28;20068;-77
2022/07/12 04:34:51;;;;;;;6.55;4.93;;;15.80;99.90;;;;;;5000966;28;20030;-77
2022/07/12 04:37:16;;;;;;;8.30;4.57;;;15.70;99.90;;;;;;5000817;28;20105;-79
2022/07/12 04:39:42;;;;;;;7.95;4.72;;;15.80;99.90;;;;;;5001967;28;20053;-77
2022/07/12 04:42:08;;;;;;;5.95;4.15;;;15.80;99.90;;;;;;4998083;28;20034;-78
2022/07/12 04:44:34;;;;;;;8.10;5.18;;;15.90;99.90;;;;;;5000182;28;20026;-78
2022/07/12 04:46:59;;;;;;;7.13;5.05;;;15.90;99.90;;;;;;5000481;28;20025;-78
2022/07/12 04:49:25;;;;;;;5.10;4.30;;;15.90;99.90;;;;;;4999955;28;20057;-77
2022/07/12 04:51:50;;;;;;;6.80;4.63;;;15.90;99.90;;;;;;4984747;28;20073;-78
2022/07/12 04:54:16;;;;;;;7.30;4.85;;;16.00;99.90;;;;;;5003260;28;20435;-76
2022/07/12 04:56:42;;;;;;;9.00;5.20;;;16.00;99.90;;;;;;5006557;28;20026;-77
2022/07/12 04:59:07;;;;;;;6.75;4.10;;;16.10;99.90;;;;;;5005372;28;20028;-78
2022/07/12 05:01:33;;;;;;;7.72;4.05;;;16.10;99.90;;;;;;5002031;28;20092;-78
2022/07/12 05:03:59;;;;;;;6.00;3.47;;;16.10;99.90;;;;;;5003229;28;20030;-78
2022/07/12 05:06:25;;;;;;;7.00;3.42;;;16.20;99.90;;;;;;5002418;28;20529;-76
2022/07/12 05:08:51;;;;;;;8.88;3.88;;;16.10;99.90;;;;;;5000440;28;20798;-76
2022/07/12 05:11:17;;;;;;;5.45;2.78;;;16.20;99.90;;;;;;4998851;28;20045;-77
2022/07/12 05:13:43;;;;;;;6.38;3.17;;;16.20;99.90;;;;;;5001621;28;20113;-77
2022/07/12 05:16:09;;;;;;;7.40;3.70;;;16.40;99.90;;;;;;5002217;28;20530;-77
2022/07/12 05:18:35;;;;;;;6.93;3.38;;;16.40;99.90;;;;;;4997982;28;20053;-77
2022/07/12 05:21:01;;;;;;;3.97;1.80;;;16.40;99.90;;;;;;4997771;28;20089;-78
2022/07/12 05:23:27;;;;;;;4.28;3.38;;;16.90;99.90;;;;;;5002512;28;20034;-79
2022/07/12 05:25:52;;;;;;;4.47;3.00;;;16.90;99.90;;;;;;4996669;28;20044;-79
2022/07/12 05:28:18;;;;;;;4.43;2.75;;;16.90;99.90;;;;;;5001986;28;20033;-77
2022/07/12 05:30:44;;;;;;;2.90;2.03;;;16.90;99.90;;;;;;5000525;28;20021;-77
2022/07/12 05:33:12;;;;;;;6.50;3.00;;;17.00;99.90;;;;;;5000729;28;20316;-78
2022/07/12 05:35:38;;;;;;;4.05;2.40;;;17.00;99.90;;;;;;5001673;28;20026;-78
2022/07/12 05:38:03;;;;;;;3.38;2.40;;;17.00;99.90;;;;;;4998482;28;20519;-76
2022/07/12 05:40:30;;;;;;;6.28;2.58;;;17.00;99.90;;;;;;4998943;28;20084;-77
2022/07/12 05:42:55;;;;;;;3.05;2.20;;;17.00;99.90;;;;;;5002707;28;20033;-77
2022/07/12 05:45:24;;;;;;;3.75;2.53;;;17.00;99.90;;;;;;4999724;28;20034;-77
2022/07/12 05:47:49;;;;;;;4.18;2.63;;;16.90;99.90;;;;;;4998891;28;20100;-77
2022/07/12 05:50:15;;;;;;;4.38;2.33;;;16.90;99.90;;;;;;4999331;28;20496;-77
2022/07/12 05:55:25;;;;;;;5.85;2.30;;;16.90;99.90;;;;;;5001922;28;20053;-77
2022/07/12 05:57:51;;;;;;;6.07;2.35;;;16.90;99.90;;;;;;4987361;28;20253;-77
2022/07/12 06:00:17;;;;;;;3.45;2.25;;;17.00;99.90;;;;;;5007049;28;20071;-78
2022/07/12 06:02:43;;;;;;;5.65;2.50;;;17.00;99.90;;;;;;5007830;28;20032;-76
2022/07/12 06:05:09;;;;;;;6.20;2.30;;;17.10;99.90;;;;;;5003841;28;20089;-76
2022/07/12 06:07:35;;;;;;;3.10;1.90;;;17.20;99.90;;;;;;4999509;28;20114;-77
2022/07/12 06:10:00;;;;;;;5.00;2.13;;;17.20;99.90;;;;;;5001541;28;20036;-77
2022/07/12 06:12:26;;;;;;;2.60;1.75;;;17.20;99.90;;;;;;4998683;28;20049;-77
2022/07/12 06:14:52;;;;;;;3.20;1.80;;;17.30;99.90;;;;;;4996462;28;20022;-77
2022/07/12 06:17:21;;;;;;;2.47;2.00;;;17.40;99.90;;;;;;5000587;28;20033;-77
2022/07/12 06:19:47;;;;;;;2.20;1.92;;;17.40;99.90;;;;;;4998586;28;20344;-77
2022/07/12 06:22:13;;;;;;;3.50;2.08;;;17.40;99.90;;;;;;4998835;28;20110;-78
2022/07/12 06:24:39;;;;;;;4.45;2.25;;;17.40;99.90;;;;;;5000211;28;20569;-76
2022/07/12 06:27:05;;;;;;;2.92;2.40;;;17.50;99.90;;;;;;5000012;28;20078;-76
2022/07/12 06:29:30;;;;;;;2.85;1.95;;;17.50;99.90;;;;;;4998322;28;20506;-76
2022/07/12 06:31:56;;;;;;;3.05;1.90;;;17.60;99.90;;;;;;4996833;28;20057;-76
2022/07/12 06:34:22;;;;;;;2.65;1.98;;;17.70;99.90;;;;;;4999332;28;20512;-76
2022/07/12 06:36:47;;;;;;;4.25;2.20;;;17.80;99.90;;;;;;5000482;28;20104;-76
2022/07/12 06:39:13;;;;;;;2.75;1.88;;;17.80;99.90;;;;;;4999197;28;20042;-77
2022/07/12 06:41:39;;;;;;;3.40;2.40;;;17.70;99.90;;;;;;4997643;28;20029;-77
2022/07/12 06:44:04;;;;;;;2.58;2.00;;;17.70;99.90;;;;;;4998643;28;20031;-76
2022/07/12 06:46:30;;;;;;;2.50;2.05;;;17.80;99.90;;;;;;4997981;28;20032;-77
2022/07/12 06:48:56;;;;;;;5.30;2.25;;;17.90;99.90;;;;;;4998029;28;20030;-79
2022/07/12 06:51:21;;;;;;;4.05;2.50;;;17.80;99.90;;;;;;4996658;28;20026;-79
2022/07/12 06:53:47;;;;;;;2.78;1.98;;;17.80;99.90;;;;;;4998928;28;20026;-76
2022/07/12 06:56:13;;;;;;;2.75;2.03;;;17.90;99.90;;;;;;4997739;28;20533;-77
2022/07/12 06:58:38;;;;;;;2.42;2.20;;;17.90;99.90;;;;;;4995129;28;20029;-77
2022/07/12 07:01:04;;;;;;;2.90;2.05;;;17.80;99.90;;;;;;4999767;28;20468;-78
2022/07/12 07:03:30;;;;;;;2.88;1.90;;;18.00;99.90;;;;;;4980711;28;20029;-77
2022/07/12 07:05:55;;;;;;;3.35;2.08;;;18.00;99.90;;;;;;4997594;28;20120;-77
2022/07/12 07:08:21;;;;;;;4.22;2.08;;;18.10;99.90;;;;;;4998673;28;20509;-78
2022/07/12 07:10:47;;;;;;;3.97;2.22;;;18.20;99.90;;;;;;5023189;28;20458;-78
2022/07/12 07:13:12;;;;;;;2.97;2.13;;;18.10;99.90;;;;;;4998014;28;20026;-77
2022/07/12 07:15:42;;;;;;;2.80;2.08;;;18.20;99.90;;;;;;4997809;28;20056;-77
2022/07/12 07:18:08;;;;;;;3.28;2.00;;;18.30;99.90;;;;;;4996727;28;20312;-77
2022/07/12 07:20:34;;;;;;;3.28;2.67;;;18.30;99.90;;;;;;5002247;28;20031;-76
2022/07/12 07:23:00;;;;;;;4.47;2.17;;;18.40;99.90;;;;;;5002321;28;20592;-77
2022/07/12 07:25:25;;;;;;;4.93;2.70;;;18.40;99.90;;;;;;5004084;28;20032;-77
2022/07/12 07:27:51;;;;;;;5.03;2.30;;;18.40;99.90;;;;;;5003369;28;20042;-77
2022/07/12 07:33:01;;;;;;;4.88;2.45;;;18.40;99.90;;;;;;5002291;28;20511;-76
2022/07/12 07:35:26;;;;;;;5.30;2.35;;;18.30;99.90;;;;;;5001625;28;20032;-78
2022/07/12 07:37:52;;;;;;;3.15;2.28;;;18.30;99.90;;;;;;5004938;28;20567;-77
2022/07/12 07:40:18;;;;;;;3.15;2.03;;;18.30;99.90;;;;;;4999686;28;20053;-77
2022/07/12 07:42:44;;;;;;;4.18;2.47;;;18.40;99.90;;;;;;4999331;28;21821;-76
2022/07/12 07:45:10;;;;;;;4.30;2.50;;;18.50;99.90;;;;;;4998817;28;20029;-78
2022/07/12 07:47:48;;;;;;;4.05;2.40;;;18.60;99.90;;;;;;5002826;28;20037;-77
2022/07/12 07:50:13;;;;;;;3.15;2.08;;;18.70;99.90;;;;;;4985367;28;20390;-78
2022/07/12 07:52:39;;;;;;;2.70;2.20;;;18.70;99.90;;;;;;5002001;28;20033;-77
2022/07/12 07:55:05;;;;;;;3.22;2.10;;;18.80;99.90;;;;;;5000806;28;20422;-77
2022/07/12 07:57:31;;;;;;;2.75;2.10;;;18.80;99.90;;;;;;5000884;28;20030;-77
2022/07/12 07:59:56;;;;;;;4.10;2.53;;;18.90;99.90;;;;;;4984130;28;20273;-77
2022/07/12 08:02:22;;;;;;;4.10;2.55;;;19.00;99.90;;;;;;5000523;28;20022;-77
2022/07/12 08:04:48;;;;;;;3.15;2.30;;;19.10;99.90;;;;;;4984865;28;20457;-77
2022/07/12 08:07:13;;;;;;;3.47;2.35;;;19.20;99.90;;;;;;4998539;28;20037;-78
2022/07/12 08:09:39;;;;;;;2.53;2.03;;;19.10;99.90;;;;;;5003499;28;20562;-78
2022/07/12 08:12:06;;;;;;;2.60;1.90;;;19.20;99.90;;;;;;4998470;28;20562;-79
2022/07/12 08:14:31;;;;;;;4.00;2.40;;;19.20;99.90;;;;;;4999822;28;20030;-77
2022/07/12 08:16:57;;;;;;;4.65;2.40;;;19.20;99.90;;;;;;5000536;28;20547;-77
2022/07/12 08:19:23;;;;;;;2.65;2.10;;;19.10;99.90;;;;;;5000497;28;20418;-78
2022/07/12 08:21:48;;;;;;;3.63;2.22;;;19.20;99.90;;;;;;5003360;28;20112;-77
2022/07/12 08:24:14;;;;;;;3.15;2.10;;;19.30;99.90;;;;;;5000282;28;20029;-76
2022/07/12 08:26:40;;;;;;;3.08;2.10;;;19.50;99.90;;;;;;5003726;28;20406;-77
2022/07/12 08:29:06;;;;;;;4.80;2.20;;;19.40;99.90;;;;;;5000011;28;20033;-76
2022/07/12 08:31:32;;;;;;;3.95;2.03;;;19.40;99.90;;;;;;4985581;28;20023;-76
2022/07/12 08:33:57;;;;;;;3.20;2.30;;;19.50;99.90;;;;;;4998691;28;20411;-77
2022/07/12 08:36:23;;;;;;;2.10;1.80;;;19.50;99.90;;;;;;5008054;28;20033;-76
2022/07/12 08:38:49;;;;;;;3.70;2.30;;;19.50;99.90;;;;;;5007781;28;20026;-77
2022/07/12 08:41:15;;;;;;;3.63;2.22;;;19.50;99.90;;;;;;5002604;28;20034;-77
2022/07/12 08:43:41;;;;;;;2.90;2.10;;;19.60;99.90;;;;;;5000007;28;20041;-78
2022/07/12 08:46:09;;;;;;;4.65;2.17;;;19.70;99.90;;;;;;5002113;28;20036;-79
2022/07/12 08:48:35;;;;;;;3.75;2.10;;;19.80;99.90;;;;;;5002068;28;20030;-77
2022/07/12 08:51:03;;;;;;;2.25;1.80;;;19.70;99.90;;;;;;5001291;28;20032;-77
2022/07/12 08:53:30;;;;;;;2.47;2.03;;;19.70;99.90;;;;;;5001679;28;20101;-78
2022/07/12 08:55:56;;;;;;;4.97;2.05;;;19.70;99.90;;;;;;5003507;28;20022;-79
2022/07/12 08:58:22;;;;;;;2.75;2.20;;;19.60;99.90;;;;;;4997015;28;20718;-78
2022/07/12 09:00:48;;;;;;;2.95;2.35;;;19.50;99.90;;;;;;5002030;28;20114;-77
2022/07/12 09:03:14;;;;;;;4.50;2.08;;;19.40;99.90;;;;;;5000739;28;20026;-77
2022/07/12 09:05:52;;;;;;;2.28;1.90;;;19.30;99.90;;;;;;5003094;28;20030;-77
2022/07/12 09:08:23;;;;;;;4.47;2.15;;;19.20;99.90;;;;;;4996480;28;20033;-77
2022/07/12 09:11:01;;;;;;;2.90;1.83;;;19.20;99.90;;;;;;5001701;28;20030;-77
2022/07/12 09:13:47;;;;;;;4.35;2.15;;;19.10;99.90;;;;;;5004327;28;20560;-77
2022/07/12 09:16:35;;;;;;;4.40;2.38;;;19.00;99.90;;;;;;4998565;28;20022;-77
2022/07/12 09:19:19;;;;;;;2.63;2.13;;;19.00;99.90;;;;;;4999277;28;20040;-78
2022/07/12 09:21:54;;;;;;;3.55;2.08;;;19.20;99.90;;;;;;5000438;28;20022;-78
2022/07/12 09:24:24;;;;;;;3.08;2.00;;;19.20;99.90;;;;;;4997314;28;20498;-78
2022/07/12 09:26:56;;;;;;;2.65;1.90;;;19.20;99.90;;;;;;4999749;28;20509;-77
2022/07/12 09:29:22;;;;;;;4.05;2.00;;;19.30;99.90;;;;;;4997850;28;20105;-77
2022/07/12 09:37:20;;;;;;;2.45;1.83;;;19.40;99.90;;;;;;4999307;28;20097;-77
2022/07/12 09:39:47;;;;;;;2.45;1.30;;;19.40;99.90;;;;;;5000802;28;20030;-78
2022/07/12 09:42:13;;;;;;;1.45;1.23;;;19.40;99.90;;;;;;5000698;28;20029;-78
2022/07/12 09:44:40;;;;;;;2.05;1.50;;;19.50;99.90;;;;;;4996450;28;20026;-78
2022/07/12 09:47:13;;;;;;;2.75;1.60;;;19.50;99.90;;;;;;4982904;28;20025;-80
2022/07/12 09:49:43;;;;;;;3.22;1.65;;;19.60;99.90;;;;;;5000716;28;20018;-77
2022/07/12 09:55:05;;;;;;;4.90;2.00;;;19.80;99.90;;;;;;5001838;28;20383;-78
2022/07/12 09:57:32;;;;;;;3.45;1.50;;;19.90;99.90;;;;;;4996984;28;20026;-78
2022/07/12 09:59:59;;;;;;;4.05;1.70;;;19.90;99.90;;;;;;4996967;28;20517;-77
2022/07/12 10:02:26;;;;;;;2.63;1.45;;;20.10;99.90;;;;;;5000285;28;20491;-77
2022/07/12 10:05:11;;;;;;;1.90;1.55;;;20.10;99.90;;;;;;4999001;28;20022;-77
2022/07/12 10:07:38;;;;;;;3.70;2.20;;;20.10;99.90;;;;;;4982664;28;20034;-77
2022/07/12 10:10:04;;;;;;;1.65;1.35;;;20.10;99.90;;;;;;4998117;28;20026;-77
2022/07/12 10:12:30;;;;;;;3.50;1.50;;;20.10;99.90;;;;;;4999483;28;20113;-77
2022/07/12 10:20:43;;;;;;;2.13;1.40;;;20.30;99.90;;;;;;4999806;28;20486;-77
2022/07/12 10:23:28;;;;;;;1.40;1.27;;;20.30;99.90;;;;;;4998816;28;20033;-77
2022/07/12 10:25:53;;;;;;;3.72;1.40;;;20.40;99.90;;;;;;4999050;28;20113;-77
2022/07/12 10:28:19;;;;;;;3.78;1.55;;;20.50;99.90;;;;;;4997105;28;20455;-77
2022/07/12 10:30:49;;;;;;;1.95;1.42;;;20.60;99.90;;;;;;5000989;28;20097;-77
2022/07/12 10:33:19;;;;;;;2.33;1.40;;;20.60;99.90;;;;;;5000710;28;20030;-77
2022/07/12 10:36:03;;;;;;;2.75;1.90;;;20.70;99.90;;;;;;5023373;28;20399;-76
2022/07/12 10:38:47;;;;;;;4.43;1.38;;;20.80;99.90;;;;;;4997820;28;20052;-77
2022/07/12 10:41:21;;;;;;;1.92;1.42;;;20.90;99.90;;;;;;4998018;28;20105;-77
2022/07/12 10:44:06;;;;;;;1.27;1.10;;;21.00;99.90;;;;;;4999099;28;20018;-77
2022/07/12 10:46:37;;;;;;;2.92;1.33;;;21.10;99.90;;;;;;4997659;28;20600;-77
2022/07/12 10:49:25;;;;;;;1.80;1.23;;;21.10;99.90;;;;;;4998621;28;20426;-76
2022/07/12 10:52:10;;;;;;;2.08;1.35;;;21.20;99.90;;;;;;4999835;28;20445;-77
2022/07/12 10:54:39;;;;;;;3.08;1.30;;;21.30;99.90;;;;;;4994518;28;20088;-77
2022/07/12 10:57:06;;;;;;;2.38;1.35;;;21.30;99.90;;;;;;5004835;28;20061;-77
2022/07/12 10:59:36;;;;;;;3.35;1.67;;;21.40;99.90;;;;;;5001295;28;20358;-77
2022/07/12 11:02:03;;;;;;;3.17;1.45;;;21.30;99.90;;;;;;4998869;28;20049;-77
2022/07/12 11:04:29;;;;;;;3.40;1.48;;;21.40;99.90;;;;;;4992695;28;20030;-78
2022/07/12 11:06:56;;;;;;;2.55;1.55;;;21.40;99.90;;;;;;5002743;28;20034;-77
2022/07/12 11:12:08;;;;;;;3.17;1.70;;;21.60;99.90;;;;;;5001953;28;20030;-77
2022/07/12 11:14:35;;;;;;;4.60;1.50;;;21.80;99.90;;;;;;5002500;28;20401;-79
2022/07/12 11:17:01;;;;;;;2.92;1.52;;;22.00;99.90;;;;;;5004547;28;20022;-79
2022/07/12 11:19:31;;;;;;;1.77;1.35;;;22.20;99.90;;;;;;5005278;28;20482;-79
2022/07/12 11:22:17;;;;;;;2.83;1.60;;;22.50;99.90;;;;;;5003242;28;20401;-78
2022/07/12 11:24:44;;;;;;;2.47;1.20;;;23.00;99.90;;;;;;5018094;28;20022;-78
2022/07/12 11:27:28;;;;;;;2.03;1.13;;;24.00;99.90;;;;;;5003309;28;20044;-77
2022/07/12 11:30:00;;;;;;;1.40;0.95;;;25.20;99.50;;;;;;5015421;28;20068;-78
2022/07/12 11:32:37;;;;;;;2.75;1.50;;;26.20;97.60;;;;;;5005925;28;20018;-79
2022/07/12 11:35:21;;;;;;;2.72;1.00;;;27.60;94.40;;;;;;5005170;28;20438;-78
2022/07/12 11:40:40;;;;;;;2.55;1.50;;;29.30;89.00;;;;;;5016963;28;20033;-78
2022/07/12 11:43:06;;;;;;;1.80;1.63;;;29.50;80.90;;;;;;5006064;28;20453;-78
2022/07/12 11:45:33;;;;;;;2.40;1.00;;;29.90;76.50;;;;;;5004847;28;20026;-77
2022/07/12 11:48:03;;;;;;;1.55;0.98;;;29.90;73.10;;;;;;5004014;28;20054;-79
2022/07/12 11:50:30;;;;;;;1.73;1.00;;;30.40;73.10;;;;;;5005241;28;20034;-78
2022/07/12 11:52:56;;;;;;;2.47;1.00;;;30.60;69.60;;;;;;5006074;28;20018;-78
2022/07/12 11:55:22;;;;;;;2.05;1.08;;;31.10;68.50;;;;;;5002722;28;20117;-79
2022/07/12 11:57:48;;;;;;;2.47;1.20;;;30.60;67.70;;;;;;5006385;28;20081;-78
2022/07/12 12:00:33;;;;;;;1.77;0.80;;;30.80;69.00;;;;;;5005887;28;20052;-79
2022/07/12 12:02:59;;;;;;;2.08;1.05;;;30.50;67.70;;;;;;5005211;28;20034;-79
2022/07/12 12:05:25;;;;;;;1.05;0.90;;;30.10;70.00;;;;;;5005144;28;20023;-79
2022/07/12 12:07:50;;;;;;;1.05;0.90;;;30.00;70.10;;;;;;5002413;28;20026;-79
2022/07/12 12:10:35;;;;;;;1.10;1.00;;;30.30;70.30;;;;;;5005832;28;20087;-78
2022/07/12 12:13:02;;;;;;;1.88;0.85;;;30.00;69.90;;;;;;5005203;28;20130;-77
2022/07/12 12:15:33;;;;;;;2.05;1.05;;;29.90;71.20;;;;;;5005542;28;20029;-80
2022/07/12 12:18:07;;;;;;;2.40;1.60;;;29.70;71.70;;;;;;5008878;28;20026;-80
2022/07/12 12:23:22;;;;;;;4.57;1.13;;;30.10;69.50;;;;;;5003917;28;20402;-79
2022/07/12 12:26:09;;;;;;;2.33;0.90;;;30.10;69.70;;;;;;5004290;28;20056;-80
2022/07/12 12:28:46;;;;;;;2.15;1.00;;;30.20;69.30;;;;;;5002204;28;20026;-79
2022/07/12 12:31:13;;;;;;;1.48;0.93;;;29.80;69.40;;;;;;5004023;28;20081;-78
2022/07/12 12:33:44;;;;;;;2.65;1.30;;;29.70;71.50;;;;;;4999479;28;20021;-79
2022/07/12 12:36:22;;;;;;;4.80;1.20;;;29.80;70.40;;;;;;5005797;28;20060;-78
2022/07/12 12:38:50;;;;;;;1.30;0.90;;;30.20;70.60;;;;;;5004113;28;20402;-78
2022/07/12 12:41:17;;;;;;;2.92;1.15;;;29.90;71.40;;;;;;5004777;28;20411;-78
2022/07/12 12:43:42;;;;;;;2.92;0.93;;;30.30;68.20;;;;;;5007305;28;20045;-79
2022/07/12 12:46:08;;;;;;;64.60;51.63;;;30.50;69.10;;;;;;5004665;28;20026;-78
2022/07/12 12:48:35;;;;;;;5.20;1.88;;;30.20;71.00;;;;;;5004696;28;20030;-78
2022/07/12 12:51:10;;;;;;;9.68;5.60;;;30.50;70.10;;;;;;5011296;28;20326;-79
2022/07/12 12:56:22;;;;;;;2.15;1.48;;;30.90;67.90;;;;;;5003551;28;20034;-78
2022/07/12 12:58:48;;;;;;;0.95;0.82;;;30.70;66.60;;;;;;4988333;28;20026;-78
2022/07/12 13:01:14;;;;;;;1.55;1.10;;;30.60;68.70;;;;;;5002924;28;20030;-78
2022/07/12 13:12:12;;;;;;;1.35;0.90;;;31.30;63.90;;;;;;5001255;28;20387;-77
2022/07/12 13:14:38;;;;;;;1.65;0.65;;;31.30;64.20;;;;;;5005560;28;20045;-80
2022/07/12 13:17:04;;;;;;;1.10;0.80;;;31.00;64.40;;;;;;4992341;28;20063;-78
2022/07/12 13:19:31;;;;;;;1.98;1.00;;;31.10;64.00;;;;;;5014060;28;20432;-78
2022/07/12 13:21:58;;;;;;;1.08;0.80;;;31.00;63.70;;;;;;5002079;28;20026;-78
2022/07/12 13:24:25;;;;;;;1.65;0.90;;;31.00;64.40;;;;;;5000654;28;20030;-77
2022/07/12 13:26:51;;;;;;;2.13;0.80;;;31.20;65.20;;;;;;4984513;28;20077;-77
2022/07/12 13:29:16;;;;;;;1.55;0.70;;;31.20;63.40;;;;;;4999189;28;20512;-79